Time;durP1;ratioP1;P1;durP2;ratioP2;P2;SDS_P1;SDS_P2;PMS_P1;PMS_P2;Temp;Humidity;BMP_temperature;BMP_pressure;BME280_temperature;BME280_humidity;BME280_pressure;Samples;Min_cycle;Max_cycle;Signal;HPM_P1;HPM_P2
2021/12/01 00:00:34;;;;;;;42.03;21.27;;;9.20;99.90;;;;;;5128164;28;20502;-64
2021/12/01 00:03:00;;;;;;;38.28;20.17;;;9.20;99.90;;;;;;5128520;28;20058;-64
2021/12/01 00:05:29;;;;;;;37.78;18.67;;;9.30;99.90;;;;;;5117436;28;20044;-64
2021/12/01 00:07:55;;;;;;;35.42;18.42;;;9.30;99.90;;;;;;5115906;28;20052;-64
2021/12/01 00:10:23;;;;;;;36.65;18.88;;;9.30;99.90;;;;;;5094146;28;20052;-64
2021/12/01 00:12:50;;;;;;;35.85;19.17;;;9.30;99.90;;;;;;5110689;28;20122;-64
2021/12/01 00:15:16;;;;;;;32.28;19.33;;;9.40;99.90;;;;;;5119779;28;20047;-64
2021/12/01 00:17:42;;;;;;;33.47;18.45;;;9.30;99.90;;;;;;5127992;28;20075;-64
2021/12/01 00:20:10;;;;;;;30.05;17.95;;;9.40;99.90;;;;;;5122268;28;20036;-64
2021/12/01 00:22:37;;;;;;;34.90;18.98;;;9.30;99.90;;;;;;5104076;28;20126;-64
2021/12/01 00:25:04;;;;;;;32.83;18.23;;;9.50;99.90;;;;;;5114182;28;20122;-64
2021/12/01 00:27:30;;;;;;;28.75;18.23;;;9.40;99.90;;;;;;5112257;28;20048;-64
2021/12/01 00:29:57;;;;;;;33.88;20.52;;;9.50;99.90;;;;;;5119652;28;20125;-64
2021/12/01 00:32:22;;;;;;;26.92;17.02;;;9.50;99.90;;;;;;5099989;28;20047;-64
2021/12/01 00:34:48;;;;;;;27.45;19.23;;;9.60;99.90;;;;;;5100376;28;20085;-64
2021/12/01 00:37:14;;;;;;;30.40;19.45;;;9.70;99.90;;;;;;5117726;28;20059;-64
2021/12/01 00:39:40;;;;;;;27.58;20.80;;;9.60;99.90;;;;;;5125452;28;20082;-64
2021/12/01 00:42:06;;;;;;;27.30;19.85;;;9.60;99.90;;;;;;5087461;28;20095;-64
2021/12/01 00:44:35;;;;;;;25.48;19.67;;;9.60;99.90;;;;;;5121343;28;20416;-64
2021/12/01 00:49:27;;;;;;;27.33;19.73;;;9.70;99.90;;;;;;5117102;28;20035;-64
2021/12/01 00:51:53;;;;;;;29.70;20.85;;;9.70;99.90;;;;;;5110026;28;20196;-64
2021/12/01 00:54:19;;;;;;;26.83;20.05;;;9.60;99.90;;;;;;5109583;28;20027;-64
2021/12/01 00:56:45;;;;;;;27.30;20.17;;;9.60;99.90;;;;;;5108829;28;20109;-64
2021/12/01 00:59:11;;;;;;;26.50;20.42;;;9.70;99.90;;;;;;5103497;28;20067;-64
2021/12/01 01:01:37;;;;;;;26.75;19.77;;;9.70;99.90;;;;;;5118820;28;20046;-64
2021/12/01 01:04:03;;;;;;;27.17;18.58;;;9.70;99.90;;;;;;5117382;27;20083;-64
2021/12/01 01:06:29;;;;;;;29.83;20.10;;;9.90;99.90;;;;;;5145723;27;20054;-64
2021/12/01 01:08:55;;;;;;;23.33;17.52;;;9.80;99.90;;;;;;5122375;27;20048;-64
2021/12/01 01:16:52;;;;;;;25.60;19.88;;;9.90;99.90;;;;;;5147498;27;20464;-64
2021/12/01 01:19:19;;;;;;;27.30;19.80;;;9.80;99.90;;;;;;5124646;28;20046;-64
2021/12/01 01:21:49;;;;;;;26.85;18.70;;;9.90;99.90;;;;;;5120055;27;20055;-64
2021/12/01 01:24:16;;;;;;;24.98;17.85;;;10.00;99.90;;;;;;5141142;27;20066;-64
2021/12/01 01:26:42;;;;;;;25.17;18.38;;;9.90;99.90;;;;;;5139952;27;20046;-64
2021/12/01 01:29:08;;;;;;;26.80;18.20;;;9.90;99.90;;;;;;5143823;27;20036;-64
2021/12/01 01:31:34;;;;;;;25.30;17.95;;;10.00;99.90;;;;;;5125449;27;20050;-64
2021/12/01 01:34:01;;;;;;;28.13;19.02;;;10.00;99.90;;;;;;5128634;27;20046;-64
2021/12/01 01:36:27;;;;;;;30.65;20.65;;;9.90;99.90;;;;;;5145490;27;20074;-64
2021/12/01 01:38:54;;;;;;;32.20;21.45;;;9.90;99.90;;;;;;5121791;27;20039;-64
2021/12/01 01:41:20;;;;;;;29.92;20.25;;;9.80;99.90;;;;;;5126372;27;20051;-64
2021/12/01 01:43:49;;;;;;;28.52;19.50;;;9.80;99.90;;;;;;5128339;27;20039;-64
2021/12/01 01:46:15;;;;;;;26.30;18.42;;;9.80;99.90;;;;;;5136161;27;20460;-64
2021/12/01 01:48:48;;;;;;;26.80;17.10;;;9.90;99.90;;;;;;5123953;28;20048;-64
2021/12/01 01:51:16;;;;;;;26.05;18.45;;;9.80;99.90;;;;;;5126374;27;20065;-64
2021/12/01 01:53:42;;;;;;;22.13;17.15;;;9.70;99.90;;;;;;5127926;27;20047;-64
2021/12/01 01:56:09;;;;;;;24.88;16.48;;;9.70;99.90;;;;;;5121694;27;20049;-65
2021/12/01 01:58:35;;;;;;;23.95;16.45;;;9.70;99.90;;;;;;5122965;28;20107;-64
2021/12/01 02:01:08;;;;;;;22.33;14.88;;;9.70;99.90;;;;;;5119035;27;20047;-64
2021/12/01 02:03:39;;;;;;;22.83;16.15;;;9.90;99.90;;;;;;5112233;28;20044;-64
2021/12/01 02:06:07;;;;;;;28.25;17.23;;;9.90;99.90;;;;;;5136217;27;20151;-64
2021/12/01 02:08:34;;;;;;;26.23;16.65;;;9.90;99.90;;;;;;5106795;28;20044;-64
2021/12/01 02:11:02;;;;;;;21.23;15.45;;;9.80;99.90;;;;;;5138752;27;20078;-64
2021/12/01 02:13:29;;;;;;;22.25;14.85;;;9.90;99.90;;;;;;5128611;27;20069;-64
2021/12/01 02:15:57;;;;;;;22.70;13.32;;;9.90;99.90;;;;;;5120678;27;20058;-64
2021/12/01 02:18:23;;;;;;;19.42;13.13;;;10.00;99.90;;;;;;5145685;27;20046;-64
2021/12/01 02:21:01;;;;;;;20.65;13.60;;;9.90;99.90;;;;;;5137164;27;20080;-64
2021/12/01 02:23:28;;;;;;;20.42;13.60;;;9.90;99.90;;;;;;5147335;27;20045;-64
2021/12/01 02:25:54;;;;;;;20.70;13.70;;;9.90;99.90;;;;;;5142235;27;20043;-64
2021/12/01 02:28:20;;;;;;;18.48;11.55;;;9.80;99.90;;;;;;5145729;27;20054;-64
2021/12/01 02:30:46;;;;;;;16.35;11.00;;;9.90;99.90;;;;;;5126420;27;20046;-64
2021/12/01 02:33:12;;;;;;;15.77;10.00;;;9.90;99.90;;;;;;5117268;28;20043;-64
2021/12/01 02:35:38;;;;;;;11.52;7.03;;;9.90;99.90;;;;;;5113006;28;20506;-64
2021/12/01 02:38:05;;;;;;;13.90;8.80;;;10.00;99.90;;;;;;5118953;27;20062;-64
2021/12/01 02:40:31;;;;;;;15.80;9.43;;;10.10;99.90;;;;;;5139386;27;20078;-64
2021/12/01 02:42:57;;;;;;;12.07;9.02;;;9.90;99.90;;;;;;5127240;27;20051;-64
2021/12/01 02:45:23;;;;;;;12.32;7.82;;;10.00;99.90;;;;;;5144783;27;20086;-64
2021/12/01 02:47:49;;;;;;;11.65;8.32;;;10.10;99.90;;;;;;5120154;27;20043;-64
2021/12/01 02:50:15;;;;;;;11.15;7.50;;;10.00;99.90;;;;;;5126867;27;20043;-64
2021/12/01 02:52:41;;;;;;;10.80;7.60;;;9.90;99.90;;;;;;5122744;28;20078;-64
2021/12/01 02:55:10;;;;;;;11.75;7.78;;;10.10;99.90;;;;;;5117878;27;20041;-64
2021/12/01 02:57:51;;;;;;;9.50;6.47;;;10.00;99.90;;;;;;5115513;28;20043;-64
2021/12/01 03:00:19;;;;;;;10.43;7.55;;;10.10;99.90;;;;;;5114543;27;20043;-64
2021/12/01 03:02:46;;;;;;;10.13;7.00;;;10.00;99.90;;;;;;5139600;27;20043;-64
2021/12/01 03:05:14;;;;;;;10.27;6.88;;;10.00;99.90;;;;;;5118010;28;20048;-64
2021/12/01 03:07:42;;;;;;;9.75;6.28;;;10.10;99.90;;;;;;5114455;28;20047;-64
2021/12/01 03:10:08;;;;;;;8.65;6.65;;;10.10;99.90;;;;;;5119935;28;20510;-64
2021/12/01 03:12:37;;;;;;;8.02;5.90;;;10.00;99.90;;;;;;5115737;28;20055;-64
2021/12/01 03:15:06;;;;;;;6.22;4.55;;;10.00;99.90;;;;;;5125351;28;20036;-64
2021/12/01 03:17:32;;;;;;;7.15;3.78;;;10.10;99.90;;;;;;5141649;28;20047;-64
2021/12/01 03:19:58;;;;;;;6.80;4.20;;;10.10;99.90;;;;;;5145459;28;20054;-64
2021/12/01 03:22:24;;;;;;;5.68;4.10;;;10.00;99.90;;;;;;5145826;28;20044;-64
2021/12/01 03:24:51;;;;;;;5.30;4.32;;;10.00;99.90;;;;;;5117359;28;20104;-64
2021/12/01 03:27:18;;;;;;;5.53;3.30;;;10.10;99.90;;;;;;5117691;28;20040;-64
2021/12/01 03:29:46;;;;;;;3.28;2.40;;;10.10;99.90;;;;;;5121305;27;20107;-64
2021/12/01 03:32:13;;;;;;;4.22;2.35;;;10.10;99.90;;;;;;5121121;28;20044;-64
2021/12/01 03:34:40;;;;;;;4.90;2.30;;;10.20;99.90;;;;;;5144826;27;20051;-64
2021/12/01 03:37:06;;;;;;;3.72;2.20;;;10.10;99.90;;;;;;5142279;27;20368;-64
2021/12/01 03:39:32;;;;;;;3.90;2.15;;;10.10;99.90;;;;;;5117943;27;20057;-64
2021/12/01 03:41:57;;;;;;;5.15;1.90;;;10.10;99.90;;;;;;5123861;27;20039;-64
2021/12/01 03:44:23;;;;;;;6.97;2.20;;;10.10;99.90;;;;;;5142852;27;20039;-64
2021/12/01 03:46:49;;;;;;;7.90;3.03;;;10.10;99.90;;;;;;5130706;27;20058;-64
2021/12/01 03:49:15;;;;;;;6.70;3.00;;;10.00;99.90;;;;;;5130614;27;20039;-64
2021/12/01 03:51:40;;;;;;;9.07;2.72;;;10.00;99.90;;;;;;5115385;28;20063;-64
2021/12/01 03:54:06;;;;;;;5.28;2.78;;;10.00;99.90;;;;;;5138868;27;20064;-65
2021/12/01 03:56:33;;;;;;;5.53;2.35;;;9.90;99.90;;;;;;5145870;27;20039;-64
2021/12/01 03:59:00;;;;;;;6.10;2.63;;;9.90;99.90;;;;;;5141294;27;20527;-64
2021/12/01 04:01:26;;;;;;;6.78;2.70;;;9.90;99.90;;;;;;5114488;28;20050;-64
2021/12/01 04:03:52;;;;;;;6.57;2.70;;;9.90;99.90;;;;;;5127056;27;20035;-64
2021/12/01 04:06:18;;;;;;;3.70;2.28;;;10.00;99.90;;;;;;5121343;27;20055;-64
2021/12/01 04:08:44;;;;;;;6.25;2.47;;;9.90;99.90;;;;;;5095716;28;20063;-64
2021/12/01 04:11:10;;;;;;;7.30;3.13;;;10.00;99.90;;;;;;5104316;28;20048;-65
2021/12/01 04:13:35;;;;;;;4.95;2.30;;;10.00;99.90;;;;;;5099579;28;20046;-64
2021/12/01 04:16:01;;;;;;;4.57;2.38;;;10.00;99.90;;;;;;5117956;28;20053;-64
2021/12/01 04:18:27;;;;;;;5.15;3.10;;;10.10;99.90;;;;;;5120183;28;20035;-64
2021/12/01 04:20:53;;;;;;;4.22;2.55;;;10.10;99.90;;;;;;5103009;28;20036;-64
2021/12/01 04:23:19;;;;;;;5.22;2.78;;;10.10;99.90;;;;;;5099339;28;20053;-64
2021/12/01 04:25:45;;;;;;;5.05;2.85;;;10.10;99.90;;;;;;5091961;28;20499;-64
2021/12/01 04:28:11;;;;;;;4.85;2.78;;;10.10;99.90;;;;;;5109638;28;20043;-64
2021/12/01 04:30:37;;;;;;;5.88;3.40;;;10.10;99.90;;;;;;5088404;28;20054;-64
2021/12/01 04:33:04;;;;;;;5.93;3.08;;;10.10;99.90;;;;;;5106785;28;20039;-64
2021/12/01 04:35:29;;;;;;;6.03;3.60;;;10.10;99.90;;;;;;5114215;28;20049;-64
2021/12/01 04:37:56;;;;;;;6.18;3.60;;;10.10;99.90;;;;;;5096434;28;20095;-64
2021/12/01 04:40:21;;;;;;;4.57;3.25;;;10.00;99.90;;;;;;5118019;28;20051;-64
2021/12/01 04:42:47;;;;;;;4.75;3.45;;;10.10;99.90;;;;;;5106007;28;20124;-65
2021/12/01 04:45:14;;;;;;;6.35;3.60;;;10.10;99.90;;;;;;5124099;28;20519;-65
2021/12/01 04:47:46;;;;;;;6.07;3.17;;;10.00;99.90;;;;;;5101281;28;20055;-65
2021/12/01 04:50:16;;;;;;;5.18;3.45;;;10.10;99.90;;;;;;5116213;28;20111;-64
2021/12/01 04:52:42;;;;;;;5.88;3.42;;;10.10;99.90;;;;;;5092757;28;20055;-64
2021/12/01 04:55:09;;;;;;;4.38;3.58;;;10.10;99.90;;;;;;5101156;28;20066;-64
2021/12/01 04:57:38;;;;;;;4.00;3.00;;;10.00;99.90;;;;;;5101437;28;20044;-64
2021/12/01 05:00:04;;;;;;;3.60;3.30;;;10.10;99.90;;;;;;5102133;28;20078;-64
2021/12/01 05:02:30;;;;;;;4.43;3.10;;;10.00;99.90;;;;;;5101685;28;20047;-64
2021/12/01 05:04:56;;;;;;;3.42;3.10;;;9.90;99.90;;;;;;5109584;28;20109;-65
2021/12/01 05:07:23;;;;;;;3.30;2.88;;;9.80;99.90;;;;;;5117168;27;20055;-64
2021/12/01 05:09:49;;;;;;;4.00;2.80;;;9.90;99.90;;;;;;5115513;27;20040;-64
2021/12/01 05:12:14;;;;;;;3.45;2.85;;;9.80;99.90;;;;;;5140488;27;20039;-65
2021/12/01 05:14:40;;;;;;;3.65;3.05;;;9.80;99.90;;;;;;5147072;27;20715;-64
2021/12/01 05:17:07;;;;;;;3.13;2.42;;;9.80;99.90;;;;;;5129607;27;20130;-64
2021/12/01 05:19:33;;;;;;;3.50;2.40;;;9.90;99.90;;;;;;5134699;27;20044;-65
2021/12/01 05:21:59;;;;;;;3.35;2.40;;;9.90;99.90;;;;;;5140518;27;20042;-64
2021/12/01 05:24:25;;;;;;;3.25;2.45;;;9.80;99.90;;;;;;5143203;27;20039;-64
2021/12/01 05:26:50;;;;;;;2.72;2.33;;;9.70;99.90;;;;;;5136289;27;20057;-65
2021/12/01 05:29:16;;;;;;;2.20;2.00;;;9.80;99.90;;;;;;5112988;27;20047;-64
2021/12/01 05:31:42;;;;;;;2.65;2.38;;;9.90;99.90;;;;;;5128650;27;20074;-64
2021/12/01 05:34:08;;;;;;;2.45;1.88;;;9.90;99.90;;;;;;5134076;27;20127;-65
2021/12/01 05:36:34;;;;;;;2.50;2.17;;;9.90;99.90;;;;;;5145425;27;20044;-64
2021/12/01 05:39:01;;;;;;;2.70;2.40;;;9.90;99.90;;;;;;5141181;27;20038;-64
2021/12/01 05:41:26;;;;;;;2.75;2.50;;;9.90;99.90;;;;;;5147225;27;20110;-64
2021/12/01 05:43:52;;;;;;;3.05;2.30;;;9.90;99.90;;;;;;5129333;27;20066;-64
2021/12/01 05:46:18;;;;;;;2.83;2.53;;;9.80;99.90;;;;;;5140088;27;20123;-64
2021/12/01 05:48:44;;;;;;;2.42;2.10;;;9.60;99.90;;;;;;5142739;27;20051;-65
2021/12/01 05:51:10;;;;;;;2.80;2.20;;;9.70;99.90;;;;;;5113957;28;20043;-64
2021/12/01 05:53:35;;;;;;;3.17;2.78;;;9.70;99.90;;;;;;5132880;27;20078;-65
2021/12/01 05:56:02;;;;;;;2.35;2.10;;;9.70;99.90;;;;;;5114696;27;20031;-64
2021/12/01 05:58:27;;;;;;;2.80;2.47;;;9.70;99.90;;;;;;5121107;27;20039;-65
2021/12/01 06:00:53;;;;;;;2.83;2.22;;;9.70;99.90;;;;;;5124649;27;20046;-65
2021/12/01 06:03:19;;;;;;;2.78;2.30;;;9.70;99.90;;;;;;5109407;28;20304;-64
2021/12/01 06:05:45;;;;;;;2.88;2.35;;;9.70;99.90;;;;;;5120201;27;20039;-63
2021/12/01 06:08:11;;;;;;;2.45;1.98;;;9.60;99.90;;;;;;5136177;27;20051;-63
2021/12/01 06:10:40;;;;;;;2.05;1.58;;;9.60;99.90;;;;;;5128085;27;20104;-63
2021/12/01 06:13:06;;;;;;;1.90;1.70;;;9.70;99.90;;;;;;5128701;27;20051;-63
2021/12/01 06:15:32;;;;;;;2.63;1.90;;;9.60;99.90;;;;;;5117417;27;20118;-63
2021/12/01 06:17:58;;;;;;;2.63;2.13;;;9.60;99.90;;;;;;5084205;27;20049;-64
2021/12/01 06:20:25;;;;;;;2.15;1.92;;;9.40;99.90;;;;;;5115111;27;20188;-63
2021/12/01 06:22:52;;;;;;;3.33;1.90;;;9.30;99.90;;;;;;5107108;27;20047;-63
2021/12/01 06:25:18;;;;;;;2.65;2.00;;;9.40;99.90;;;;;;5120958;27;20093;-63
2021/12/01 06:27:44;;;;;;;2.40;1.95;;;9.30;99.90;;;;;;5124104;27;20046;-63
2021/12/01 06:30:11;;;;;;;3.22;2.13;;;9.40;99.90;;;;;;5120412;27;20054;-63
2021/12/01 06:32:37;;;;;;;2.55;2.00;;;9.50;99.90;;;;;;5106395;27;20726;-63
2021/12/01 06:35:05;;;;;;;2.10;1.90;;;9.50;99.90;;;;;;5120821;27;20043;-61
2021/12/01 06:37:31;;;;;;;3.45;2.17;;;9.50;99.90;;;;;;5121946;27;20076;-62
2021/12/01 06:39:57;;;;;;;3.15;2.45;;;9.50;99.90;;;;;;5118611;27;20051;-61
2021/12/01 06:42:23;;;;;;;2.08;1.83;;;9.40;99.90;;;;;;5106257;27;20074;-61
2021/12/01 06:44:48;;;;;;;2.30;2.05;;;9.40;99.90;;;;;;5103428;27;20047;-62
2021/12/01 06:47:16;;;;;;;2.95;2.13;;;9.50;99.90;;;;;;5122936;27;20047;-62
2021/12/01 06:49:45;;;;;;;2.30;2.10;;;9.50;99.90;;;;;;5128142;27;20423;-62
2021/12/01 06:52:14;;;;;;;2.80;2.03;;;9.40;99.90;;;;;;5120121;27;20054;-62
2021/12/01 06:54:41;;;;;;;2.70;2.03;;;9.40;99.90;;;;;;5117663;27;20035;-61
2021/12/01 06:57:07;;;;;;;3.95;2.75;;;9.20;99.90;;;;;;5106067;27;20582;-61
2021/12/01 06:59:32;;;;;;;2.70;2.15;;;9.20;99.90;;;;;;5116065;27;20063;-61
2021/12/01 07:01:58;;;;;;;3.88;2.20;;;9.40;99.90;;;;;;5125266;27;20234;-62
2021/12/01 07:04:24;;;;;;;4.32;2.00;;;9.30;99.90;;;;;;5117782;28;20055;-61
2021/12/01 07:06:49;;;;;;;3.17;2.70;;;9.40;99.90;;;;;;5109872;27;20313;-61
2021/12/01 07:09:21;;;;;;;2.55;2.35;;;9.40;99.90;;;;;;5132379;27;20045;-63
2021/12/01 07:11:46;;;;;;;3.22;2.10;;;9.50;99.90;;;;;;5104823;28;20157;-63
2021/12/01 07:14:12;;;;;;;3.35;2.40;;;9.50;99.90;;;;;;5118629;28;20265;-62
2021/12/01 07:16:38;;;;;;;2.63;2.30;;;9.40;99.90;;;;;;5126479;28;20089;-65
2021/12/01 07:19:04;;;;;;;3.05;2.38;;;9.40;99.90;;;;;;5126742;28;20040;-63
2021/12/01 07:21:29;;;;;;;2.45;2.20;;;9.40;99.90;;;;;;5105213;28;20056;-64
2021/12/01 07:23:55;;;;;;;3.35;2.58;;;9.40;99.90;;;;;;5114604;28;20039;-63
2021/12/01 07:26:21;;;;;;;2.95;2.58;;;9.30;99.90;;;;;;5108707;28;20047;-64
2021/12/01 07:28:48;;;;;;;3.00;2.40;;;9.10;99.90;;;;;;5104768;28;20266;-63
2021/12/01 07:31:14;;;;;;;2.72;2.42;;;9.20;99.90;;;;;;5098923;28;20039;-63
2021/12/01 07:33:40;;;;;;;2.83;2.13;;;9.30;99.90;;;;;;5100567;28;20054;-64
2021/12/01 07:36:08;;;;;;;2.95;1.80;;;9.30;99.90;;;;;;5107934;28;20035;-62
2021/12/01 07:38:34;;;;;;;2.65;2.17;;;9.20;99.90;;;;;;5098736;28;20055;-64
2021/12/01 07:40:59;;;;;;;2.35;2.03;;;9.20;99.90;;;;;;5120023;28;20035;-62
2021/12/01 07:43:25;;;;;;;3.13;2.80;;;9.20;99.90;;;;;;5096753;28;20111;-64
2021/12/01 07:45:51;;;;;;;2.53;1.80;;;9.20;99.90;;;;;;5115162;28;20044;-62
2021/12/01 07:48:17;;;;;;;2.78;2.30;;;9.30;99.90;;;;;;5116833;28;20502;-62
2021/12/01 07:50:43;;;;;;;2.53;2.33;;;9.30;99.90;;;;;;5107417;28;20040;-62
2021/12/01 07:53:09;;;;;;;2.85;2.17;;;9.20;99.90;;;;;;5117191;28;20053;-61
2021/12/01 07:55:35;;;;;;;3.35;2.50;;;9.30;99.90;;;;;;5120374;28;20067;-61
2021/12/01 07:58:01;;;;;;;2.33;1.92;;;9.10;99.90;;;;;;5103524;28;20073;-61
2021/12/01 08:00:27;;;;;;;3.53;2.30;;;9.20;99.90;;;;;;5097419;28;20077;-62
2021/12/01 08:02:53;;;;;;;2.72;2.00;;;9.20;99.90;;;;;;5117722;28;20055;-62
2021/12/01 08:05:19;;;;;;;2.42;2.08;;;9.10;99.90;;;;;;5130316;27;20067;-62
2021/12/01 08:07:45;;;;;;;3.67;3.05;;;9.30;99.90;;;;;;5092294;28;20051;-63
2021/12/01 08:10:10;;;;;;;3.40;2.08;;;9.20;99.90;;;;;;5118893;28;20058;-62
2021/12/01 08:12:38;;;;;;;3.50;2.80;;;9.10;99.90;;;;;;5118831;28;20063;-62
2021/12/01 08:15:06;;;;;;;3.78;2.60;;;9.10;99.90;;;;;;5118039;27;20553;-62
2021/12/01 08:17:31;;;;;;;6.55;2.33;;;9.20;99.90;;;;;;5119634;27;20060;-63
2021/12/01 08:19:58;;;;;;;2.90;2.28;;;9.30;99.90;;;;;;5107204;27;20050;-62
2021/12/01 08:22:26;;;;;;;3.03;2.70;;;9.30;99.90;;;;;;5107917;28;20051;-62
2021/12/01 08:24:52;;;;;;;3.08;2.70;;;9.20;99.90;;;;;;5121365;27;20039;-62
2021/12/01 08:27:17;;;;;;;3.15;2.42;;;9.30;99.90;;;;;;5108207;27;20538;-62
2021/12/01 08:29:43;;;;;;;3.80;3.30;;;9.40;99.90;;;;;;5116150;27;20047;-63
2021/12/01 08:32:09;;;;;;;4.90;2.70;;;9.40;99.90;;;;;;5104922;27;20099;-62
2021/12/01 08:34:35;;;;;;;2.90;2.60;;;9.30;99.90;;;;;;5122231;27;20051;-62
2021/12/01 08:37:00;;;;;;;3.30;2.85;;;9.30;99.90;;;;;;5113130;27;20114;-62
2021/12/01 08:39:26;;;;;;;3.88;3.40;;;9.40;99.90;;;;;;5103949;27;20057;-63
2021/12/01 08:41:52;;;;;;;4.40;3.33;;;9.40;99.90;;;;;;5126826;27;20573;-63
2021/12/01 08:44:18;;;;;;;4.03;3.63;;;9.30;99.90;;;;;;5138668;27;20478;-62
2021/12/01 08:46:44;;;;;;;4.50;3.35;;;9.30;99.90;;;;;;5089601;28;20453;-62
2021/12/01 08:49:10;;;;;;;4.10;3.70;;;9.40;99.90;;;;;;5120502;27;20093;-62
2021/12/01 08:51:36;;;;;;;3.78;3.22;;;9.30;99.90;;;;;;5108753;27;20100;-63
2021/12/01 08:54:02;;;;;;;4.00;3.60;;;9.40;99.90;;;;;;5127775;27;20081;-63
2021/12/01 08:56:28;;;;;;;6.15;4.07;;;9.30;99.90;;;;;;5113067;28;20044;-63
2021/12/01 08:58:53;;;;;;;6.47;3.92;;;9.30;99.90;;;;;;5106031;27;20135;-63
2021/12/01 09:01:19;;;;;;;5.18;4.32;;;9.20;99.90;;;;;;5096889;28;20130;-63
2021/12/01 09:03:45;;;;;;;5.18;3.20;;;9.10;99.90;;;;;;5121291;27;20102;-63
2021/12/01 09:06:10;;;;;;;5.45;3.40;;;9.10;99.90;;;;;;5125036;27;20577;-63
2021/12/01 09:08:39;;;;;;;3.03;2.17;;;9.10;99.90;;;;;;5099322;27;20081;-63
2021/12/01 09:11:06;;;;;;;4.25;2.50;;;9.20;99.90;;;;;;5112529;27;20094;-63
2021/12/01 09:13:33;;;;;;;4.20;2.10;;;9.30;99.90;;;;;;5102283;27;20554;-63
2021/12/01 09:15:59;;;;;;;7.38;2.20;;;9.30;99.90;;;;;;5115838;27;20499;-63
2021/12/01 09:18:27;;;;;;;6.40;2.20;;;9.30;99.90;;;;;;5098605;28;20073;-63
2021/12/01 09:20:53;;;;;;;8.30;1.98;;;9.40;99.90;;;;;;5115421;27;20054;-63
2021/12/01 09:23:19;;;;;;;6.40;1.60;;;9.40;99.90;;;;;;5103500;28;20043;-62
2021/12/01 09:25:46;;;;;;;6.85;1.75;;;9.30;99.90;;;;;;5116900;28;20050;-63
2021/12/01 09:28:14;;;;;;;6.22;2.15;;;9.30;99.90;;;;;;5103467;28;20043;-62
2021/12/01 09:30:40;;;;;;;9.68;3.13;;;9.30;99.90;;;;;;5135364;27;20074;-63
2021/12/01 09:33:06;;;;;;;9.18;2.00;;;9.40;99.90;;;;;;5104406;27;20047;-62
2021/12/01 09:35:32;;;;;;;7.43;1.38;;;9.30;99.90;;;;;;5116857;27;20309;-63
2021/12/01 09:37:58;;;;;;;8.90;1.80;;;9.40;99.90;;;;;;5104588;27;20047;-63
2021/12/01 09:40:23;;;;;;;9.05;2.42;;;9.30;99.90;;;;;;5139702;27;20058;-62
2021/12/01 09:42:52;;;;;;;6.13;1.60;;;9.30;99.90;;;;;;5118390;27;20125;-63
2021/12/01 09:45:20;;;;;;;11.88;1.73;;;9.30;99.90;;;;;;5122217;27;20070;-63
2021/12/01 09:47:47;;;;;;;7.55;2.13;;;9.30;99.90;;;;;;5119582;27;20079;-64
2021/12/01 09:50:13;;;;;;;8.40;2.58;;;9.20;99.90;;;;;;5111320;27;20074;-63
2021/12/01 09:52:39;;;;;;;7.75;2.30;;;9.30;99.90;;;;;;5098715;28;20050;-63
2021/12/01 09:55:06;;;;;;;7.53;1.20;;;9.30;99.90;;;;;;5111547;27;20043;-63
2021/12/01 09:57:32;;;;;;;8.75;1.42;;;9.20;99.90;;;;;;5097793;27;20132;-63
2021/12/01 09:59:58;;;;;;;8.70;2.10;;;9.10;99.90;;;;;;5132259;27;20173;-63
2021/12/01 10:02:25;;;;;;;6.72;1.50;;;9.00;99.90;;;;;;5115689;27;20193;-63
2021/12/01 10:04:52;;;;;;;5.18;1.42;;;9.00;99.90;;;;;;5104372;27;20061;-63
2021/12/01 10:07:33;;;;;;;6.80;1.20;;;9.00;99.90;;;;;;5106122;27;20044;-63
2021/12/01 10:10:08;;;;;;;6.50;1.30;;;8.90;99.90;;;;;;5096777;28;20067;-63
2021/12/01 10:12:50;;;;;;;3.63;1.23;;;8.80;99.90;;;;;;5096039;27;20343;-63
2021/12/01 10:15:31;;;;;;;8.25;1.23;;;8.70;99.90;;;;;;5125292;27;20169;-63
2021/12/01 10:18:15;;;;;;;6.38;1.38;;;8.70;99.90;;;;;;5122295;27;20055;-63
2021/12/01 10:20:43;;;;;;;10.73;1.77;;;8.70;99.90;;;;;;5108909;27;20054;-63
2021/12/01 10:23:18;;;;;;;11.07;1.65;;;8.70;99.90;;;;;;5096109;27;20047;-63
2021/12/01 10:25:44;;;;;;;11.50;2.20;;;8.80;99.90;;;;;;5128233;27;20073;-63
2021/12/01 10:28:37;;;;;;;9.52;2.22;;;8.80;99.90;;;;;;5079629;28;20060;-63
2021/12/01 10:31:03;;;;;;;10.70;2.10;;;8.90;99.90;;;;;;5113989;27;20043;-64
2021/12/01 10:33:30;;;;;;;7.50;1.40;;;9.00;99.90;;;;;;5101874;27;20051;-63
2021/12/01 10:36:07;;;;;;;16.13;2.20;;;9.00;99.90;;;;;;5111805;27;20042;-64
2021/12/01 10:38:37;;;;;;;6.82;2.20;;;8.90;99.90;;;;;;5106949;27;20086;-63
2021/12/01 10:41:08;;;;;;;9.38;1.95;;;8.90;99.90;;;;;;5119740;27;20036;-64
2021/12/01 10:43:46;;;;;;;7.55;2.13;;;8.90;99.90;;;;;;5092450;28;20165;-63
2021/12/01 10:46:15;;;;;;;12.43;2.10;;;8.80;99.90;;;;;;5113418;27;20030;-64
2021/12/01 10:48:42;;;;;;;11.18;2.15;;;8.70;99.90;;;;;;5107460;27;20070;-63
2021/12/01 10:51:30;;;;;;;7.45;1.20;;;8.70;99.90;;;;;;5109462;27;20047;-63
2021/12/01 10:53:56;;;;;;;9.70;1.80;;;8.70;99.90;;;;;;5098421;27;20039;-63
2021/12/01 10:56:22;;;;;;;8.82;1.50;;;8.70;99.90;;;;;;5131599;27;20095;-63
2021/12/01 10:58:47;;;;;;;10.07;1.52;;;8.80;99.90;;;;;;5108974;27;20070;-63
2021/12/01 11:01:25;;;;;;;10.95;1.83;;;8.90;99.90;;;;;;5113217;27;20051;-63
2021/12/01 11:03:51;;;;;;;12.25;1.85;;;8.90;99.90;;;;;;5103869;27;20055;-64
2021/12/01 11:06:22;;;;;;;8.88;1.60;;;8.90;99.90;;;;;;5104038;27;20058;-63
2021/12/01 11:08:58;;;;;;;8.80;1.73;;;9.00;99.90;;;;;;5118469;27;20653;-63
2021/12/01 11:11:33;;;;;;;11.40;2.00;;;9.00;99.90;;;;;;5108527;28;20067;-64
2021/12/01 11:14:11;;;;;;;8.90;1.65;;;9.00;99.90;;;;;;5119183;27;20059;-64
2021/12/01 11:16:39;;;;;;;10.75;1.70;;;9.00;99.90;;;;;;5138446;27;20043;-63
2021/12/01 11:19:04;;;;;;;7.93;1.80;;;8.90;99.90;;;;;;5114113;28;20056;-64
2021/12/01 11:21:30;;;;;;;10.35;2.47;;;8.80;99.90;;;;;;5130062;28;20050;-64
2021/12/01 11:24:04;;;;;;;11.30;1.92;;;8.70;99.90;;;;;;5104014;28;20059;-63
2021/12/01 11:26:32;;;;;;;14.00;1.75;;;8.80;99.90;;;;;;5137930;28;20051;-62
2021/12/01 11:29:05;;;;;;;11.85;1.90;;;8.80;99.90;;;;;;5119787;27;20047;-63
2021/12/01 11:31:37;;;;;;;8.45;1.77;;;8.80;99.90;;;;;;5131759;28;20047;-62
2021/12/01 11:34:09;;;;;;;11.85;2.30;;;8.80;99.90;;;;;;5112202;28;20052;-64
2021/12/01 11:36:45;;;;;;;8.77;1.90;;;8.90;99.90;;;;;;5118541;28;20579;-65
2021/12/01 11:39:18;;;;;;;13.43;2.22;;;8.90;99.90;;;;;;5103179;28;20114;-64
2021/12/01 11:41:45;;;;;;;8.65;2.35;;;8.90;99.90;;;;;;5135439;28;20066;-65
2021/12/01 11:44:12;;;;;;;11.70;1.83;;;8.90;99.90;;;;;;5124315;28;20417;-65
2021/12/01 11:46:38;;;;;;;12.20;2.40;;;8.80;99.90;;;;;;5111247;28;20047;-65
2021/12/01 11:49:10;;;;;;;11.85;2.13;;;8.70;99.90;;;;;;5093578;28;20055;-65
2021/12/01 11:51:55;;;;;;;12.43;2.20;;;8.70;99.90;;;;;;5117566;27;20304;-64
2021/12/01 11:54:23;;;;;;;14.00;2.67;;;8.70;99.90;;;;;;5094214;28;20047;-63
2021/12/01 11:57:00;;;;;;;10.65;2.28;;;8.70;99.90;;;;;;5136589;27;20042;-63
2021/12/01 11:59:36;;;;;;;12.70;2.35;;;8.60;99.90;;;;;;5114324;27;20593;-63
2021/12/01 12:02:25;;;;;;;10.45;2.15;;;8.60;99.90;;;;;;5106315;27;20047;-65
2021/12/01 12:04:53;;;;;;;12.30;2.58;;;8.60;99.90;;;;;;5099912;28;20055;-66
2021/12/01 12:07:18;;;;;;;14.27;2.55;;;8.60;99.90;;;;;;5106039;27;20047;-64
2021/12/01 12:10:16;;;;;;;12.93;2.75;;;8.60;99.90;;;;;;5093236;27;20047;-64
2021/12/01 12:12:46;;;;;;;10.10;2.05;;;8.50;99.90;;;;;;5109503;27;20056;-65
2021/12/01 12:15:47;;;;;;;8.57;1.80;;;8.50;99.90;;;;;;5141348;27;20066;-64
2021/12/01 12:18:38;;;;;;;14.63;3.00;;;8.40;99.90;;;;;;5092654;27;20069;-64
2021/12/01 12:21:11;;;;;;;10.60;2.05;;;8.40;99.90;;;;;;5100535;27;20091;-64
2021/12/01 12:23:38;;;;;;;11.77;2.58;;;8.50;99.90;;;;;;5089050;28;20081;-64
2021/12/01 12:26:04;;;;;;;17.67;2.33;;;8.40;99.90;;;;;;5097940;27;20066;-64
2021/12/01 12:28:38;;;;;;;17.80;3.08;;;8.50;99.90;;;;;;5070739;27;20055;-63
2021/12/01 12:31:24;;;;;;;19.33;4.10;;;8.50;99.90;;;;;;5115685;27;20065;-64
2021/12/01 12:33:52;;;;;;;13.50;2.83;;;8.40;99.90;;;;;;5090237;27;20145;-64
2021/12/01 12:36:34;;;;;;;16.83;3.60;;;8.50;99.90;;;;;;5117169;27;20051;-63
2021/12/01 12:39:07;;;;;;;19.60;2.85;;;8.50;99.90;;;;;;5120815;27;20047;-64
2021/12/01 12:41:55;;;;;;;15.95;3.20;;;8.60;99.90;;;;;;5133013;27;20047;-65
2021/12/01 12:44:45;;;;;;;17.13;3.28;;;8.50;99.90;;;;;;5106814;27;20056;-64
2021/12/01 12:47:19;;;;;;;21.02;2.75;;;8.50;99.90;;;;;;5114332;27;20403;-63
2021/12/01 12:49:46;;;;;;;16.17;3.78;;;8.40;99.90;;;;;;5127899;27;20342;-63
2021/12/01 12:52:24;;;;;;;18.95;3.50;;;8.50;99.90;;;;;;5113037;27;20044;-63
2021/12/01 12:55:10;;;;;;;16.50;2.67;;;8.40;99.90;;;;;;5104569;27;20051;-63
2021/12/01 12:57:58;;;;;;;13.77;2.60;;;8.40;99.90;;;;;;5109212;27;20271;-64
2021/12/01 13:00:33;;;;;;;16.90;3.20;;;8.30;99.90;;;;;;5135110;27;20077;-63
2021/12/01 13:03:21;;;;;;;17.23;2.58;;;8.30;99.90;;;;;;5108118;27;20066;-63